createdAt,value
2022-08-05T00:02:37.666Z,21.613159
2022-08-05T00:06:06.754Z,21.582947
2022-08-05T00:09:28.273Z,21.562805
2022-08-05T00:12:55.716Z,21.522522
2022-08-05T00:16:18.899Z,21.462097
2022-08-05T00:19:45.732Z,21.431885
2022-08-05T00:23:12.687Z,21.381531
2022-08-05T00:26:34.850Z,21.401672
2022-08-05T00:30:00.531Z,21.351318
2022-08-05T00:34:42.990Z,21.311035
2022-08-05T00:37:09.418Z,21.220398
2022-08-05T00:40:17.689Z,21.25061
2022-08-05T00:43:41.669Z,21.210327
2022-08-05T00:47:06.762Z,21.129761
2022-08-05T00:50:32.098Z,21.039124
2022-08-05T00:54:01.615Z,21.008911
2022-08-05T00:57:23.057Z,20.98877
2022-08-05T01:00:50.281Z,21.039124
2022-08-05T01:04:14.001Z,21.069336
2022-08-05T01:07:52.146Z,21.029053
2022-08-05T01:11:04.102Z,20.847778
2022-08-05T01:14:29.417Z,20.737
2022-08-05T01:17:54.708Z,20.696716
2022-08-05T01:21:22.016Z,20.61615
2022-08-05T01:24:45.345Z,20.656433
2022-08-05T01:28:10.636Z,20.716858
2022-08-05T01:31:42.481Z,20.666504
2022-08-05T01:35:02.192Z,20.696716
2022-08-05T01:38:29.368Z,20.61615
2022-08-05T01:41:52.801Z,20.565796
2022-08-05T01:45:18.151Z,20.434875
2022-08-05T01:48:43.473Z,20.414734
2022-08-05T01:52:12.485Z,20.384521
2022-08-05T01:55:36.183Z,20.424805
2022-08-05T01:58:59.431Z,20.465088
2022-08-05T02:02:26.368Z,20.434875
2022-08-05T02:05:50.061Z,20.394592
2022-08-05T02:09:16.386Z,20.414734
2022-08-05T02:12:40.685Z,20.324097
2022-08-05T02:16:06.019Z,20.354309
2022-08-05T02:19:33.424Z,20.293884
2022-08-05T02:22:56.610Z,20.283813
2022-08-05T02:26:21.933Z,20.324097
2022-08-05T02:29:58.072Z,20.36438
2022-08-05T02:33:12.580Z,20.36438
2022-08-05T02:36:37.870Z,20.394592
2022-08-05T02:40:03.192Z,20.434875
2022-08-05T02:43:28.491Z,20.545654
2022-08-05T02:47:00.063Z,20.575867
2022-08-05T02:50:19.139Z,20.636292
2022-08-05T02:53:44.503Z,20.757141
2022-08-05T02:58:09.586Z,20.797424
2022-08-05T03:00:35.253Z,20.908203
2022-08-05T03:04:02.332Z,20.918274
2022-08-05T03:07:40.747Z,20.968628
2022-08-05T03:11:01.385Z,20.948486
2022-08-05T03:14:08.513Z,20.978699
2022-08-05T03:17:33.841Z,21.059265
2022-08-05T03:20:59.209Z,21.099548
2022-08-05T03:24:29.737Z,21.220398
2022-08-05T03:27:57.794Z,21.311035
2022-08-05T03:31:18.355Z,21.431885
2022-08-05T03:34:40.568Z,21.49231
2022-08-05T03:38:05.904Z,21.582947
2022-08-05T03:41:32.889Z,21.643372
2022-08-05T03:44:57.038Z,21.74408
2022-08-05T03:48:22.064Z,21.834717
2022-08-05T03:52:36.308Z,21.915283
2022-08-05T03:55:54.599Z,22.026062
2022-08-05T03:58:37.948Z,22.136841
2022-08-05T04:02:03.356Z,22.207336
2022-08-05T04:05:33.111Z,22.348328
2022-08-05T04:08:53.941Z,22.449036
2022-08-05T04:12:23.807Z,22.489319
2022-08-05T04:15:52.943Z,22.418823
2022-08-05T04:19:10.457Z,22.358398
2022-08-05T04:22:35.427Z,22.267761
2022-08-05T04:26:01.144Z,22.207336
2022-08-05T04:29:27.213Z,22.116699
2022-08-05T04:32:51.597Z,22.056274
2022-08-05T04:36:46.387Z,21.975708
2022-08-05T04:39:42.242Z,21.864929
2022-08-05T04:43:07.487Z,21.75415
2022-08-05T04:46:32.824Z,21.774292
2022-08-05T04:50:01.244Z,21.723938
2022-08-05T04:53:23.439Z,21.774292
2022-08-05T04:56:48.753Z,21.794434
2022-08-05T05:00:14.064Z,21.864929
2022-08-05T05:03:41.721Z,21.905212
2022-08-05T05:07:04.694Z,22.015991
2022-08-05T05:10:29.982Z,21.985779
2022-08-05T05:13:55.434Z,22.026062
2022-08-05T05:17:24.131Z,22.066345
2022-08-05T05:20:46.281Z,22.056274
2022-08-05T05:24:11.591Z,22.056274
2022-08-05T05:27:41.892Z,22.015991
2022-08-05T05:31:02.244Z,21.985779
2022-08-05T05:34:27.550Z,21.935425
2022-08-05T05:37:59.178Z,21.935425
2022-08-05T05:41:18.490Z,21.905212
2022-08-05T05:44:45.859Z,21.935425
2022-08-05T05:48:09.023Z,21.935425
2022-08-05T05:51:35.185Z,21.955566
2022-08-05T05:54:59.491Z,22.046204
2022-08-05T05:58:30.463Z,22.066345
2022-08-05T06:01:57.472Z,22.116699
2022-08-05T06:05:16.368Z,22.167053
2022-08-05T06:08:40.778Z,22.24762
2022-08-05T06:12:06.108Z,22.24762
2022-08-05T06:16:28.128Z,22.207336
2022-08-05T06:18:56.749Z,22.237549
2022-08-05T06:22:22.090Z,22.267761
2022-08-05T06:25:59.928Z,22.24762
2022-08-05T06:29:26.532Z,22.237549
2022-08-05T06:32:38.028Z,22.217407
2022-08-05T06:36:09.358Z,22.197266
2022-08-05T06:39:28.679Z,22.237549
2022-08-05T06:42:53.961Z,22.308044
2022-08-05T06:46:19.278Z,22.449036
2022-08-05T06:50:00.018Z,22.519531
2022-08-05T06:53:11.778Z,22.50946
2022-08-05T06:56:35.342Z,22.600098
2022-08-05T07:00:00.522Z,22.670593
2022-08-05T07:03:28.107Z,22.731018
2022-08-05T07:06:51.161Z,22.76123
2022-08-05T07:10:16.664Z,22.821655
2022-08-05T07:13:57.380Z,22.821655
2022-08-05T07:17:57.659Z,22.902222
2022-08-05T07:20:33.974Z,22.902222
2022-08-05T07:23:57.801Z,22.952576
2022-08-05T07:27:23.344Z,23.023071
2022-08-05T07:30:50.312Z,23.093567
2022-08-05T07:34:13.937Z,23.123779
2022-08-05T07:37:39.414Z,23.224487
2022-08-05T07:41:16.965Z,23.355408
2022-08-05T07:44:29.893Z,23.456116
2022-08-05T07:47:55.757Z,23.576965
2022-08-05T07:51:23.240Z,23.728027
2022-08-05T07:54:47.595Z,23.828735
2022-08-05T07:58:17.563Z,23.949585
2022-08-05T08:01:36.741Z,24.020081
2022-08-05T08:05:02.082Z,24.080505
2022-08-05T08:08:27.456Z,24.130859
2022-08-05T08:11:54.347Z,24.241638
2022-08-05T08:15:18.247Z,24.342346
2022-08-05T08:18:43.572Z,24.453125
2022-08-05T08:22:09.187Z,24.493408
2022-08-05T08:25:59.613Z,24.584045
2022-08-05T08:29:02.454Z,24.624329
2022-08-05T08:32:27.954Z,24.714966
2022-08-05T08:35:52.555Z,24.775391
2022-08-05T08:39:16.487Z,24.825745
2022-08-05T08:42:46.988Z,24.876099
2022-08-05T08:46:06.352Z,24.876099
2022-08-05T08:50:08.059Z,24.946594
2022-08-05T08:52:57.072Z,24.956665
2022-08-05T08:56:22.421Z,25.01709
2022-08-05T08:59:48.925Z,25.077515
2022-08-05T09:03:15.892Z,25.137939
2022-08-05T09:06:38.477Z,25.198364
2022-08-05T09:10:03.873Z,25.238647
2022-08-05T09:13:31.596Z,25.299072
2022-08-05T09:16:54.975Z,25.39978
2022-08-05T09:20:20.981Z,25.550842
2022-08-05T09:23:45.674Z,25.65155
2022-08-05T09:27:11.086Z,25.722046
2022-08-05T09:30:36.470Z,25.762329
2022-08-05T09:34:01.868Z,25.732117
2022-08-05T09:38:13.322Z,25.732117
2022-08-05T09:40:53.966Z,25.873108
2022-08-05T09:44:17.874Z,25.993958
2022-08-05T09:47:48.942Z,26.064453
2022-08-05T09:51:15.096Z,26.205444
2022-08-05T09:54:33.876Z,26.386719
2022-08-05T09:57:59.887Z,26.65863
2022-08-05T10:01:31.675Z,26.920471
2022-08-05T10:04:50.006Z,27.222595
2022-08-05T10:08:35.591Z,27.504578
2022-08-05T10:11:40.671Z,27.78656
2022-08-05T10:15:06.012Z,27.846985
2022-08-05T10:18:31.295Z,27.736206
2022-08-05T10:21:56.631Z,27.695923
2022-08-05T10:25:21.948Z,27.816772
2022-08-05T10:28:47.333Z,28.088684
2022-08-05T10:32:50.308Z,28.269958
2022-08-05T10:35:40.473Z,28.441162
2022-08-05T10:39:58.832Z,28.551941
2022-08-05T10:43:04.991Z,28.481445
2022-08-05T10:46:33.648Z,28.219604
2022-08-05T10:50:20.361Z,28.068542
2022-08-05T10:53:24.301Z,28.028259
2022-08-05T10:56:52.985Z,27.967834
2022-08-05T11:00:20.386Z,27.846985
2022-08-05T11:03:43.058Z,27.776489
2022-08-05T11:07:08.339Z,27.766418
2022-08-05T11:10:34.725Z,27.91748
2022-08-05T11:14:00.046Z,28.028259
2022-08-05T11:17:56.975Z,28.239746
2022-08-05T11:20:50.714Z,28.2901
2022-08-05T11:24:29.678Z,28.330383
2022-08-05T11:27:51.564Z,28.41095
2022-08-05T11:31:06.911Z,28.521729
2022-08-05T11:34:32.212Z,28.612366
2022-08-05T11:38:36.110Z,28.803711
2022-08-05T11:41:36.963Z,28.934631
2022-08-05T11:44:53.479Z,29.04541
2022-08-05T11:48:13.916Z,29.055481
2022-08-05T11:51:43.487Z,28.773499
2022-08-05T11:55:07.215Z,28.441162
2022-08-05T11:58:29.945Z,28.179321
2022-08-05T12:01:55.285Z,27.957764
2022-08-05T12:05:20.621Z,27.806702
2022-08-05T12:08:48.004Z,27.716064
2022-08-05T12:12:11.279Z,27.615356
2022-08-05T12:15:38.150Z,27.504578
2022-08-05T12:19:02.184Z,27.40387
2022-08-05T12:22:28.159Z,27.434082
2022-08-05T12:26:11.901Z,27.65564
2022-08-05T12:29:38.637Z,27.957764
2022-08-05T12:33:07.066Z,28.209534
2022-08-05T12:36:30.629Z,28.390808
2022-08-05T12:40:03.407Z,28.551941
2022-08-05T12:43:23.939Z,28.66272
2022-08-05T12:47:12.650Z,28.713074
2022-08-05T12:50:49.349Z,28.803711
2022-08-05T12:54:17.005Z,28.934631
2022-08-05T12:57:44.981Z,28.964844
2022-08-05T13:01:59.474Z,28.954773
2022-08-05T13:04:31.832Z,28.984985
2022-08-05T13:07:59.632Z,28.964844
2022-08-05T13:11:25.267Z,29.04541
2022-08-05T13:14:59.114Z,29.105835
2022-08-05T13:18:18.942Z,29.236755
2022-08-05T13:21:48.142Z,29.156189
2022-08-05T13:25:18.918Z,29.075623
2022-08-05T13:28:40.965Z,28.984985
2022-08-05T13:32:05.339Z,29.015198
2022-08-05T13:35:31.642Z,28.954773
2022-08-05T13:38:55.625Z,28.995056
2022-08-05T13:42:20.897Z,29.105835
2022-08-05T13:45:46.566Z,29.115906
2022-08-05T13:49:12.201Z,29.055481
2022-08-05T13:52:38.039Z,29.015198
2022-08-05T13:56:03.999Z,28.995056
2022-08-05T13:59:55.600Z,29.035339
2022-08-05T14:03:20.524Z,29.055481
2022-08-05T14:06:47.670Z,28.964844
2022-08-05T14:10:12.901Z,28.864136
2022-08-05T14:13:40.271Z,28.66272
2022-08-05T14:17:16.690Z,28.431091
2022-08-05T14:20:41.332Z,28.360596
2022-08-05T14:24:06.712Z,28.340454
2022-08-05T14:27:32.098Z,28.330383
2022-08-05T15:06:13.370Z,28.118896
2022-08-05T15:09:50.818Z,28.058472
2022-08-05T15:13:03.402Z,27.967834
2022-08-05T15:16:25.428Z,27.91748
2022-08-05T15:19:50.864Z,27.836914
2022-08-05T15:23:16.263Z,27.836914
2022-08-05T15:26:41.635Z,27.816772
2022-08-05T15:30:06.986Z,27.816772
2022-08-05T15:34:06.104Z,27.78656
2022-08-05T15:36:57.685Z,27.806702
2022-08-05T15:40:42.214Z,27.937622
2022-08-05T15:43:48.552Z,27.937622
2022-08-05T15:47:13.787Z,27.967834
2022-08-05T15:50:39.121Z,27.897339
2022-08-05T15:54:04.466Z,27.816772
2022-08-05T15:57:32.981Z,27.736206
2022-08-05T16:01:12.952Z,27.65564
2022-08-05T16:04:20.510Z,27.464294
2022-08-05T16:07:46.182Z,27.323303
2022-08-05T16:11:11.189Z,27.121887
2022-08-05T16:14:36.586Z,27.03125
2022-08-05T16:18:04.174Z,26.970825
2022-08-05T16:21:58.993Z,26.940613
2022-08-05T16:24:53.168Z,26.920471
2022-08-05T16:28:18.604Z,26.799622
2022-08-05T16:31:56.483Z,26.64856
2022-08-05T16:35:09.437Z,26.497498
2022-08-05T16:38:34.787Z,26.316223
2022-08-05T16:42:13.450Z,26.134949
2022-08-05T16:46:03.249Z,26.054382
2022-08-05T16:48:50.978Z,25.973816
2022-08-05T16:52:17.369Z,25.90332
2022-08-05T16:55:46.694Z,25.732117
2022-08-05T16:59:08.730Z,25.550842
2022-08-05T17:02:33.435Z,25.419922
2022-08-05T17:05:59.387Z,25.178223
2022-08-05T17:09:24.180Z,24.926453
2022-08-05T17:12:50.686Z,24.674683
2022-08-05T17:16:33.763Z,24.271851
2022-08-05T17:19:40.438Z,23.949585
2022-08-05T17:23:05.873Z,23.75824
2022-08-05T17:26:31.319Z,23.607178
2022-08-05T17:29:59.709Z,23.395691
2022-08-05T17:33:21.999Z,23.153992
2022-08-05T17:36:47.359Z,22.912292
2022-08-05T17:40:12.877Z,22.650452
2022-08-05T17:43:47.313Z,22.428894
2022-08-05T17:47:03.250Z,22.167053
2022-08-05T17:50:30.238Z,21.975708
2022-08-05T17:53:54.829Z,21.824646
2022-08-05T17:57:19.321Z,21.613159
2022-08-05T18:00:46.994Z,21.49231
2022-08-05T18:04:11.126Z,21.401672
2022-08-05T18:07:41.028Z,21.25061
2022-08-05T18:11:00.744Z,21.24054
2022-08-05T18:14:26.168Z,21.008911
2022-08-05T18:17:58.138Z,21.029053
2022-08-05T18:21:19.790Z,20.98877
2022-08-05T18:24:49.006Z,20.968628
2022-08-05T18:28:21.884Z,20.86792
2022-08-05T18:31:43.777Z,20.797424
2022-08-05T18:35:09.127Z,20.666504
2022-08-05T18:38:34.559Z,20.545654
2022-08-05T18:42:07.742Z,20.434875
2022-08-05T18:45:41.158Z,20.384521
2022-08-05T18:48:55.112Z,20.334167
2022-08-05T18:52:32.779Z,20.263672
2022-08-05T18:55:45.986Z,20.142822
2022-08-05T18:59:42.487Z,20.032043
2022-08-05T19:02:38.184Z,19.941406
2022-08-05T19:06:06.493Z,19.880981
2022-08-05T19:09:27.701Z,19.810486
2022-08-05T19:12:53.156Z,19.830627
2022-08-05T19:16:22.326Z,19.770203
2022-08-05T19:19:44.237Z,19.73999
2022-08-05T19:23:22.852Z,19.659424
2022-08-05T19:26:34.768Z,19.679565
2022-08-05T19:30:00.310Z,19.659424
2022-08-05T19:33:35.004Z,19.659424
2022-08-05T19:36:51.161Z,19.659424
2022-08-05T19:40:16.631Z,19.659424
2022-08-05T19:44:05.193Z,19.73999
2022-08-05T19:47:07.316Z,19.73999
2022-08-05T19:50:32.720Z,19.659424
2022-08-05T19:54:03.943Z,19.679565
2022-08-05T19:57:46.670Z,19.679565
2022-08-05T20:00:48.780Z,19.649353
2022-08-05T20:04:14.081Z,19.407654
2022-08-05T20:07:47.629Z,19.186096
2022-08-05T20:11:04.695Z,19.095459
2022-08-05T20:14:30.020Z,19.186096
2022-08-05T20:17:55.352Z,19.216309
2022-08-05T20:21:20.678Z,19.206238
2022-08-05T20:24:45.991Z,19.226379
2022-08-05T20:28:13.886Z,19.226379
2022-08-05T20:31:37.703Z,19.024963
2022-08-05T20:35:01.960Z,18.98468
2022-08-05T20:38:28.833Z,19.055176
2022-08-05T20:41:52.592Z,18.954468
2022-08-05T20:45:17.924Z,18.954468
2022-08-05T20:48:43.239Z,18.954468
2022-08-05T20:52:08.589Z,19.004822
2022-08-05T20:55:55.859Z,18.98468
2022-08-05T20:59:00.204Z,18.954468
2022-08-05T21:02:26.753Z,18.803406
2022-08-05T21:05:54.201Z,18.632202
2022-08-05T21:09:15.246Z,18.370361
2022-08-05T21:12:40.588Z,18.138733
2022-08-05T21:16:05.943Z,17.776184
2022-08-05T21:19:43.363Z,17.544556
2022-08-05T21:22:56.833Z,17.333069
2022-08-05T21:26:22.227Z,17.252502
2022-08-05T21:29:48.369Z,17.141724
2022-08-05T21:33:22.186Z,17.121582
2022-08-05T21:36:38.280Z,17.081299
2022-08-05T21:40:03.684Z,17.041016
2022-08-05T21:43:29.019Z,16.97052
2022-08-05T21:46:54.344Z,16.809387
2022-08-05T21:50:19.672Z,16.759033
2022-08-05T21:53:45.025Z,16.5979
2022-08-05T21:57:30.110Z,16.577759
2022-08-05T22:00:35.651Z,16.577759
2022-08-05T22:04:00.947Z,16.577759
2022-08-05T22:07:39.695Z,16.497192
2022-08-05T22:10:51.619Z,16.446838
2022-08-05T22:14:31.586Z,16.517334
2022-08-05T22:17:48.613Z,16.628113
2022-08-05T22:21:19.013Z,16.567688
2022-08-05T22:24:39.929Z,16.557617
2022-08-05T22:28:10.087Z,16.557617
2022-08-05T22:31:23.655Z,16.577759
2022-08-05T22:34:48.978Z,16.487122
2022-08-05T22:38:14.293Z,16.34613
2022-08-05T22:42:05.808Z,16.305847
2022-08-05T22:45:04.935Z,16.305847
2022-08-05T22:48:30.248Z,16.406555
2022-08-05T22:52:02.888Z,16.386414
2022-08-05T22:55:21.262Z,16.386414
2022-08-05T22:58:46.244Z,16.406555
2022-08-05T23:02:11.661Z,16.34613
2022-08-05T23:05:36.927Z,16.295776
2022-08-05T23:09:14.699Z,16.33606
2022-08-05T23:12:28.485Z,16.406555
2022-08-05T23:15:52.911Z,16.426697
2022-08-05T23:19:23.741Z,16.456909
2022-08-05T23:22:43.539Z,16.456909
2022-08-05T23:26:08.866Z,16.446838
2022-08-05T23:29:34.526Z,16.426697
2022-08-05T23:32:59.483Z,16.416626
2022-08-05T23:36:28.271Z,16.456909
2022-08-05T23:39:53.517Z,16.446838
2022-08-05T23:43:24.708Z,16.386414
2022-08-05T23:46:40.769Z,16.325989
2022-08-05T23:50:09.297Z,16.34613
2022-08-05T23:53:46.329Z,16.325989
2022-08-05T23:56:57.158Z,16.376343
